TimeEST,TemperatureF,Dew PointF,Humidity,Sea Level PressureIn,VisibilityMPH,Wind Direction,Wind SpeedMPH,Gust SpeedMPH,PrecipitationIn,Events,Conditions,WindDirDegrees,DateUTC
12:15 AM,41.9,30.9,65,30.09,10.0,Calm,Calm,-,N/A,,Clear,0,2012-11-08 05:15:00
12:35 AM,41.9,30.9,65,30.10,10.0,NW,3.5,-,N/A,,Clear,310,2012-11-08 05:35:00
12:55 AM,41.9,30.9,65,30.10,10.0,Calm,Calm,-,N/A,,Clear,0,2012-11-08 05:55:00
1:15 AM,40.6,31.1,69,30.10,10.0,Calm,Calm,-,N/A,,Clear,0,2012-11-08 06:15:00
1:35 AM,39.6,31.5,73,30.11,10.0,Calm,Calm,-,N/A,,Clear,0,2012-11-08 06:35:00
1:55 AM,39.0,31.1,73,30.11,10.0,Calm,Calm,-,N/A,,Clear,0,2012-11-08 06:55:00
2:15 AM,38.8,31.1,74,30.12,10.0,WNW,3.5,-,N/A,,Clear,290,2012-11-08 07:15:00
2:35 AM,38.7,30.9,74,30.12,10.0,WNW,3.5,-,N/A,,Clear,300,2012-11-08 07:35:00
2:55 AM,38.3,31.1,75,30.13,10.0,Calm,Calm,-,N/A,,Clear,0,2012-11-08 07:55:00
3:15 AM,38.5,30.9,74,30.13,10.0,Calm,Calm,-,N/A,,Clear,0,2012-11-08 08:15:00
3:35 AM,37.4,30.9,77,30.13,10.0,Calm,Calm,-,N/A,,Clear,0,2012-11-08 08:35:00
3:55 AM,36.9,30.9,79,30.14,10.0,Calm,Calm,-,N/A,,Clear,0,2012-11-08 08:55:00
4:15 AM,36.5,30.7,80,30.14,10.0,Calm,Calm,-,N/A,,Clear,0,2012-11-08 09:15:00
4:35 AM,36.3,30.7,80,30.15,10.0,Calm,Calm,-,N/A,,Clear,0,2012-11-08 09:35:00
4:55 AM,36.1,30.7,81,30.15,10.0,Calm,Calm,-,N/A,,Clear,0,2012-11-08 09:55:00
5:15 AM,33.8,30.4,87,30.16,10.0,Calm,Calm,-,N/A,,Clear,0,2012-11-08 10:15:00
5:35 AM,34.0,30.9,89,30.17,10.0,Calm,Calm,-,N/A,,Clear,0,2012-11-08 10:35:00
6:15 AM,33.6,31.3,91,30.18,10.0,Calm,Calm,-,N/A,,Clear,0,2012-11-08 11:15:00
6:35 AM,32.9,31.3,94,30.19,10.0,Calm,Calm,-,N/A,,Clear,0,2012-11-08 11:35:00
6:55 AM,32.7,31.3,94,30.19,10.0,Calm,Calm,-,N/A,,Clear,0,2012-11-08 11:55:00
7:15 AM,32.0,30.9,96,30.20,10.0,West,3.5,-,N/A,,Clear,270,2012-11-08 12:15:00
7:55 AM,33.1,31.5,94,30.22,10.0,Calm,Calm,-,N/A,,Clear,0,2012-11-08 12:55:00
8:15 AM,33.4,31.5,92,30.23,10.0,Calm,Calm,-,N/A,,Clear,0,2012-11-08 13:15:00
8:35 AM,35.4,32.0,87,30.24,10.0,Calm,Calm,-,N/A,,Clear,0,2012-11-08 13:35:00
8:55 AM,37.0,32.0,82,30.25,10.0,Calm,Calm,-,N/A,,Clear,0,2012-11-08 13:55:00
9:15 AM,37.9,31.8,79,30.25,10.0,WNW,3.5,-,N/A,,Clear,290,2012-11-08 14:15:00
9:35 AM,38.7,31.8,76,30.26,10.0,WNW,4.6,-,N/A,,Clear,290,2012-11-08 14:35:00
9:55 AM,39.2,32.2,76,30.26,10.0,Calm,Calm,-,N/A,,Clear,0,2012-11-08 14:55:00
10:15 AM,41.9,32.0,68,30.26,10.0,Calm,Calm,-,N/A,,Clear,0,2012-11-08 15:15:00
10:35 AM,42.1,31.6,67,30.27,10.0,Calm,Calm,-,N/A,,Clear,0,2012-11-08 15:35:00
10:55 AM,43.9,32.4,64,30.27,10.0,Calm,Calm,-,N/A,,Clear,0,2012-11-08 15:55:00
11:15 AM,43.9,31.5,62,30.26,10.0,SW,4.6,-,N/A,,Clear,220,2012-11-08 16:15:00
11:35 AM,44.6,31.1,59,30.26,10.0,North,3.5,-,N/A,,Clear,360,2012-11-08 16:35:00
11:55 AM,45.1,31.1,58,30.25,10.0,Calm,Calm,-,N/A,,Clear,0,2012-11-08 16:55:00
12:15 PM,46.4,31.5,56,30.24,10.0,NW,4.6,-,N/A,,Clear,310,2012-11-08 17:15:00
12:35 PM,48.2,31.8,53,30.24,10.0,Calm,Calm,-,N/A,,Clear,0,2012-11-08 17:35:00
12:55 PM,48.0,32.0,54,30.23,10.0,WSW,4.6,-,N/A,,Clear,250,2012-11-08 17:55:00
1:15 PM,48.6,32.4,54,30.22,10.0,North,3.5,-,N/A,,Clear,360,2012-11-08 18:15:00
1:35 PM,49.6,32.0,51,30.22,10.0,Calm,Calm,-,N/A,,Clear,0,2012-11-08 18:35:00
1:55 PM,49.5,31.3,50,30.21,10.0,NE,3.5,-,N/A,,Clear,50,2012-11-08 18:55:00
2:15 PM,50.0,29.3,45,30.21,10.0,NNW,3.5,-,N/A,,Clear,340,2012-11-08 19:15:00
2:35 PM,50.9,30.2,45,30.20,10.0,West,6.9,-,N/A,,Clear,260,2012-11-08 19:35:00
2:55 PM,50.5,28.9,43,30.20,10.0,West,3.5,-,N/A,,Clear,260,2012-11-08 19:55:00
3:15 PM,50.9,27.5,40,30.20,10.0,North,5.8,-,N/A,,Clear,10,2012-11-08 20:15:00
3:35 PM,50.5,28.0,42,30.20,10.0,Calm,Calm,-,N/A,,Clear,0,2012-11-08 20:35:00
3:55 PM,50.9,28.4,42,30.20,10.0,North,4.6,-,N/A,,Clear,350,2012-11-08 20:55:00
4:15 PM,50.9,27.7,41,30.21,10.0,NW,3.5,-,N/A,,Clear,320,2012-11-08 21:15:00
4:35 PM,50.7,27.3,40,30.21,10.0,Calm,Calm,-,N/A,,Clear,0,2012-11-08 21:35:00
4:55 PM,50.0,27.7,42,30.21,10.0,NW,4.6,-,N/A,,Clear,320,2012-11-08 21:55:00
5:15 PM,49.5,27.1,42,30.21,10.0,Calm,Calm,-,N/A,,Clear,0,2012-11-08 22:15:00
5:35 PM,48.2,27.3,44,30.22,10.0,Calm,Calm,-,N/A,,Clear,0,2012-11-08 22:35:00
5:55 PM,47.3,27.3,46,30.22,10.0,Calm,Calm,-,N/A,,Clear,0,2012-11-08 22:55:00
6:15 PM,45.9,27.1,48,30.22,10.0,Calm,Calm,-,N/A,,Clear,0,2012-11-08 23:15:00
6:35 PM,46.0,26.2,46,30.22,10.0,Calm,Calm,-,N/A,,Clear,0,2012-11-08 23:35:00
6:55 PM,45.7,27.3,49,30.22,10.0,Calm,Calm,-,N/A,,Clear,0,2012-11-08 23:55:00
7:15 PM,44.6,26.6,49,30.22,10.0,Calm,Calm,-,N/A,,Clear,0,2012-11-09 00:15:00
7:35 PM,43.9,27.5,53,30.22,10.0,Calm,Calm,-,N/A,,Clear,0,2012-11-09 00:35:00
7:55 PM,43.9,28.0,54,30.23,10.0,Calm,Calm,-,N/A,,Clear,0,2012-11-09 00:55:00
8:15 PM,43.2,28.8,57,30.23,10.0,Calm,Calm,-,N/A,,Clear,0,2012-11-09 01:15:00
8:35 PM,42.6,27.7,56,30.23,10.0,Calm,Calm,-,N/A,,Clear,0,2012-11-09 01:35:00
8:55 PM,42.4,27.5,56,30.24,10.0,Calm,Calm,-,N/A,,Clear,0,2012-11-09 01:55:00
9:15 PM,43.5,27.9,54,30.23,10.0,Calm,Calm,-,N/A,,Clear,0,2012-11-09 02:15:00
9:35 PM,41.7,28.0,58,30.23,10.0,Calm,Calm,-,N/A,,Clear,0,2012-11-09 02:35:00
9:55 PM,41.0,28.4,61,30.24,10.0,Calm,Calm,-,N/A,,Clear,0,2012-11-09 02:55:00
10:15 PM,40.8,28.6,62,30.24,10.0,Calm,Calm,-,N/A,,Clear,0,2012-11-09 03:15:00
10:35 PM,38.5,29.5,70,30.23,10.0,Calm,Calm,-,N/A,,Clear,0,2012-11-09 03:35:00
10:55 PM,39.7,28.4,64,30.23,10.0,Calm,Calm,-,N/A,,Clear,0,2012-11-09 03:55:00
11:15 PM,39.9,28.4,63,30.24,10.0,Calm,Calm,-,N/A,,Clear,0,2012-11-09 04:15:00
11:35 PM,39.2,28.4,65,30.24,10.0,Calm,Calm,-,N/A,,Clear,0,2012-11-09 04:35:00
11:55 PM,38.7,28.4,67,30.24,10.0,Calm,Calm,-,N/A,,Clear,0,2012-11-09 04:55:00